createdAt,value
2023-02-11T00:02:05.766Z,102590.38
2023-02-11T00:05:10.588Z,102591.31
2023-02-11T00:08:17.099Z,102584.69
2023-02-11T00:11:24.200Z,102584.94
2023-02-11T00:14:27.597Z,102588.00
2023-02-11T00:17:32.582Z,102587.97
2023-02-11T00:20:35.829Z,102576.22
2023-02-11T00:23:40.434Z,102582.31
2023-02-11T00:26:43.604Z,102592.50
2023-02-11T00:29:47.223Z,102591.22
2023-02-11T00:32:50.372Z,102588.12
2023-02-11T00:35:53.775Z,102587.88
2023-02-11T00:38:58.074Z,102589.53
2023-02-11T00:42:01.402Z,102593.31
2023-02-11T00:45:04.818Z,102585.56
2023-02-11T00:48:08.544Z,102582.84
2023-02-11T00:51:12.522Z,102576.75
2023-02-11T00:54:15.950Z,102573.22
2023-02-11T00:57:19.466Z,102562.22
2023-02-11T01:00:22.971Z,102552.50
2023-02-11T01:03:26.858Z,102558.69
2023-02-11T01:06:32.080Z,102539.16
2023-02-11T01:09:38.604Z,102545.37
2023-02-11T01:12:43.700Z,102547.00
2023-02-11T01:15:46.906Z,102544.50
2023-02-11T01:18:50.636Z,102541.31
2023-02-11T01:21:53.828Z,102534.59
2023-02-11T01:24:58.149Z,102539.56
2023-02-11T01:28:01.524Z,102541.09
2023-02-11T01:31:07.548Z,102539.94
2023-02-11T01:34:10.814Z,102539.78
2023-02-11T01:37:14.286Z,102536.19
2023-02-11T01:40:18.164Z,102528.37
2023-02-11T01:43:22.048Z,102536.19
2023-02-11T01:46:36.047Z,102536.78
2023-02-11T01:49:47.664Z,102529.44
2023-02-11T01:52:51.876Z,102517.25
2023-02-11T01:56:15.326Z,102518.28
2023-02-11T01:59:26.116Z,102520.41
2023-02-11T02:02:37.025Z,102526.03
2023-02-11T02:05:44.575Z,102537.19
2023-02-11T02:08:55.674Z,102526.66
2023-02-11T02:11:59.167Z,102523.62
2023-02-11T02:15:27.037Z,102520.84
2023-02-11T02:19:01.543Z,102522.63
2023-02-11T02:22:40.409Z,102533.03
2023-02-11T02:26:04.598Z,102527.41
2023-02-11T02:29:26.686Z,102520.84
2023-02-11T02:32:41.986Z,102518.75
2023-02-11T02:36:05.807Z,102519.59
2023-02-11T02:39:22.731Z,102524.72
2023-02-11T02:42:27.092Z,102523.31
2023-02-11T02:45:31.805Z,102525.13
2023-02-11T02:48:35.892Z,102515.84
2023-02-11T02:51:45.409Z,102521.31
2023-02-11T02:55:04.259Z,102514.25
2023-02-11T02:58:25.833Z,102511.84
2023-02-11T03:01:50.224Z,102502.44
2023-02-11T03:05:18.211Z,102504.22
2023-02-11T03:08:29.211Z,102494.56
2023-02-11T03:11:34.860Z,102491.03
2023-02-11T03:14:40.694Z,102488.19
2023-02-11T03:17:47.462Z,102477.56
2023-02-11T03:20:53.477Z,102444.50
2023-02-11T03:24:00.699Z,102476.59
2023-02-11T03:27:20.572Z,102475.47
2023-02-11T03:30:36.087Z,102470.72
2023-02-11T03:34:02.429Z,102463.47
2023-02-11T03:37:19.491Z,102472.84
2023-02-11T03:40:26.830Z,102462.06
2023-02-11T03:43:35.817Z,102455.75
2023-02-11T03:46:43.040Z,102451.13
2023-02-11T03:49:49.862Z,102447.84
2023-02-11T03:52:55.700Z,102442.44
2023-02-11T03:56:03.369Z,102442.38
2023-02-11T03:59:06.540Z,102423.31
2023-02-11T04:02:10.075Z,102423.09
2023-02-11T04:05:16.154Z,102416.53
2023-02-11T04:08:19.411Z,102419.22
2023-02-11T04:11:23.139Z,102406.88
2023-02-11T04:14:26.275Z,102414.72
2023-02-11T04:17:29.748Z,102408.28
2023-02-11T04:20:33.148Z,102415.75
2023-02-11T04:23:36.813Z,102421.00
2023-02-11T04:26:40.239Z,102402.56
2023-02-11T04:29:43.682Z,102397.53
2023-02-11T04:32:47.265Z,102415.50
2023-02-11T04:35:51.309Z,102415.94
2023-02-11T04:38:54.484Z,102415.81
2023-02-11T04:41:58.008Z,102408.00
2023-02-11T04:45:01.917Z,102408.81
2023-02-11T04:48:05.766Z,102415.72
2023-02-11T04:51:09.011Z,102406.81
2023-02-11T04:54:12.828Z,102419.66
2023-02-11T04:57:16.089Z,102414.31
2023-02-11T05:00:19.912Z,102416.41
2023-02-11T05:03:23.096Z,102402.84
2023-02-11T05:06:26.864Z,102417.97
2023-02-11T05:09:30.431Z,102385.84
2023-02-11T05:12:34.041Z,102401.34
2023-02-11T05:15:37.256Z,102402.94
2023-02-11T05:18:43.272Z,102406.81
2023-02-11T05:22:00.445Z,102405.91
2023-02-11T05:25:05.201Z,102401.97
2023-02-11T05:28:08.383Z,102419.72
2023-02-11T05:31:14.699Z,102412.53
2023-02-11T05:34:18.381Z,102407.56
2023-02-11T05:37:21.834Z,102406.91
2023-02-11T05:40:25.026Z,102405.31
2023-02-11T05:43:28.479Z,102401.72
2023-02-11T05:46:31.673Z,102395.47
2023-02-11T05:49:36.718Z,102403.22
2023-02-11T05:52:39.963Z,102397.47
2023-02-11T05:55:44.428Z,102394.69
2023-02-11T05:58:47.472Z,102398.06
2023-02-11T06:01:51.600Z,102399.03
2023-02-11T06:04:55.094Z,102401.12
2023-02-11T06:07:58.683Z,102392.66
2023-02-11T06:11:02.089Z,102397.34
2023-02-11T06:14:05.473Z,102384.28
2023-02-11T06:17:09.205Z,102379.28
2023-02-11T06:20:12.614Z,102321.19
2023-02-11T06:23:16.107Z,102371.09
2023-02-11T06:26:21.888Z,102375.09
2023-02-11T06:29:25.425Z,102379.53
2023-02-11T06:32:43.483Z,102379.97
2023-02-11T06:35:47.649Z,102384.78
2023-02-11T06:38:51.465Z,102380.97
2023-02-11T06:41:55.247Z,102368.75
2023-02-11T06:44:58.558Z,102382.66
2023-02-11T06:48:02.139Z,102377.00
2023-02-11T06:51:10.284Z,102371.66
2023-02-11T06:54:13.694Z,102368.56
2023-02-11T06:57:16.939Z,102362.25
2023-02-11T07:00:20.841Z,102363.69
2023-02-11T07:03:23.963Z,102370.91
2023-02-11T07:06:28.274Z,102358.53
2023-02-11T07:09:32.652Z,102364.63
2023-02-11T07:12:36.108Z,102364.84
2023-02-11T07:15:39.734Z,102362.47
2023-02-11T07:18:43.882Z,102357.34
2023-02-11T07:21:48.778Z,102349.44
2023-02-11T07:24:52.217Z,102350.34
2023-02-11T07:27:55.450Z,102337.94
2023-02-11T07:30:59.013Z,102336.09
2023-02-11T07:34:03.011Z,102332.13
2023-02-11T07:37:06.525Z,102335.94
2023-02-11T07:40:10.548Z,102337.91
2023-02-11T07:43:14.075Z,102325.75
2023-02-11T07:46:25.493Z,102325.16
2023-02-11T07:49:29.771Z,102322.09
2023-02-11T07:52:33.058Z,102323.44
2023-02-11T07:55:36.411Z,102317.59
2023-02-11T07:58:42.283Z,102316.12
2023-02-11T08:01:45.875Z,102311.91
2023-02-11T08:04:49.437Z,102308.50
2023-02-11T08:07:54.037Z,102313.88
2023-02-11T08:10:57.883Z,102313.09
2023-02-11T08:14:01.429Z,102306.09
2023-02-11T08:17:05.482Z,102301.75
2023-02-11T08:20:08.963Z,102301.75
2023-02-11T08:23:12.538Z,102310.59
2023-02-11T08:26:21.742Z,102309.78
2023-02-11T08:29:27.441Z,102314.44
2023-02-11T08:32:30.635Z,102314.69
2023-02-11T08:35:37.101Z,102326.44
2023-02-11T08:38:41.928Z,102317.72
2023-02-11T08:41:49.903Z,102314.44
2023-02-11T08:44:52.946Z,102312.81
2023-02-11T08:47:57.104Z,102315.72
2023-02-11T08:51:00.604Z,102298.34
2023-02-11T08:54:04.556Z,102293.94
2023-02-11T08:57:07.929Z,102303.25
2023-02-11T09:00:11.985Z,102296.72
2023-02-11T09:03:15.716Z,102292.91
2023-02-11T09:06:20.524Z,102289.12
2023-02-11T09:09:24.441Z,102260.28
2023-02-11T09:12:28.158Z,102258.56
2023-02-11T09:15:31.031Z,102270.37
2023-02-11T09:18:34.611Z,102274.72
2023-02-11T09:21:37.763Z,102264.97
2023-02-11T09:24:41.548Z,102257.94
2023-02-11T09:27:44.760Z,102266.78
2023-02-11T09:30:49.504Z,102264.25
2023-02-11T09:33:55.318Z,102251.97
2023-02-11T09:36:58.669Z,102252.06
2023-02-11T09:40:02.249Z,102239.84
2023-02-11T09:43:19.576Z,102242.63
2023-02-11T09:46:24.804Z,102248.91
2023-02-11T09:49:50.836Z,102248.03
2023-02-11T09:53:04.865Z,102240.03
2023-02-11T09:56:14.296Z,102226.66
2023-02-11T09:59:17.808Z,102229.31
2023-02-11T10:02:32.523Z,102229.31
2023-02-11T10:05:42.011Z,102226.63
2023-02-11T10:09:22.773Z,102223.97
2023-02-11T10:12:35.394Z,102210.63
2023-02-11T10:15:47.744Z,102221.28
2023-02-11T10:19:17.198Z,102215.12
2023-02-11T10:22:28.641Z,102201.75
2023-02-11T10:25:39.770Z,102204.38
2023-02-11T10:28:46.690Z,102182.09
2023-02-11T10:31:51.761Z,102179.41
2023-02-11T10:35:02.118Z,102178.47
2023-02-11T10:38:05.764Z,102163.28
2023-02-11T10:41:22.815Z,102160.44
2023-02-11T10:44:34.130Z,102155.37
2023-02-11T10:47:40.583Z,102106.12
2023-02-11T10:50:45.028Z,102150.47
2023-02-11T10:53:51.222Z,102143.88
2023-02-11T10:57:00.451Z,102144.09
2023-02-11T11:00:24.503Z,102129.59
2023-02-11T11:03:34.558Z,102119.72
2023-02-11T11:06:37.952Z,102119.22
2023-02-11T11:09:53.158Z,102105.19
2023-02-11T11:12:56.481Z,102093.31
2023-02-11T11:16:28.481Z,102097.69
2023-02-11T11:19:33.278Z,102088.13
2023-02-11T11:22:36.907Z,102079.47
2023-02-11T11:25:43.906Z,102077.06
2023-02-11T11:28:47.337Z,102080.06
2023-02-11T11:31:57.078Z,102071.22
2023-02-11T11:35:20.606Z,102061.75
2023-02-11T11:38:24.693Z,102072.88
2023-02-11T11:41:33.763Z,102078.34
2023-02-11T11:44:39.977Z,102065.62
2023-02-11T11:47:54.653Z,102071.84
2023-02-11T11:51:01.495Z,102057.25
2023-02-11T11:54:12.487Z,102049.97
2023-02-11T11:57:21.310Z,102050.37
2023-02-11T12:00:44.672Z,102047.09
2023-02-11T12:04:14.525Z,102045.28
2023-02-11T12:07:35.166Z,102022.63
2023-02-11T12:10:41.801Z,102019.59
2023-02-11T12:14:01.108Z,102003.22
2023-02-11T12:17:13.547Z,101986.63
2023-02-11T12:20:32.252Z,101970.03
2023-02-11T12:23:44.752Z,101966.22
2023-02-11T12:27:05.468Z,101969.37
2023-02-11T12:30:27.388Z,101963.59
2023-02-11T12:34:02.199Z,101964.69
2023-02-11T12:37:18.345Z,101962.78
2023-02-11T12:40:40.996Z,101961.12
2023-02-11T12:43:46.101Z,101953.41
2023-02-11T12:46:58.149Z,101956.88
2023-02-11T12:50:23.087Z,101960.62
2023-02-11T12:53:39.636Z,101954.91
2023-02-11T12:57:06.963Z,101941.38
2023-02-11T13:00:25.219Z,101942.53
2023-02-11T13:03:35.340Z,101931.31
2023-02-11T13:06:46.969Z,101916.56
2023-02-11T13:10:12.331Z,101905.19
2023-02-11T13:13:23.855Z,101901.91
2023-02-11T13:16:40.755Z,101900.53
2023-02-11T13:19:53.425Z,101899.97
2023-02-11T13:23:08.641Z,101883.78
2023-02-11T13:26:28.072Z,101888.44
2023-02-11T13:30:09.624Z,101875.94
2023-02-11T13:33:16.653Z,101879.69
2023-02-11T13:36:28.433Z,101874.44
2023-02-11T13:39:32.532Z,101879.12
2023-02-11T13:42:52.530Z,101877.34
2023-02-11T13:46:03.871Z,101882.94
2023-02-11T13:49:23.457Z,101884.59
2023-02-11T13:52:37.937Z,101876.47
2023-02-11T13:55:46.457Z,101885.62
2023-02-11T13:58:52.133Z,101878.94
2023-02-11T14:02:17.810Z,101881.47
2023-02-11T14:05:47.424Z,101862.00
2023-02-11T14:09:10.734Z,101867.72
2023-02-11T14:12:41.667Z,101858.88
2023-02-11T14:15:46.779Z,101872.09
2023-02-11T14:18:57.154Z,101882.38
2023-02-11T14:22:06.816Z,101881.72
2023-02-11T14:25:25.987Z,101901.37
2023-02-11T14:28:34.571Z,101904.13
2023-02-11T14:32:06.043Z,101909.41
2023-02-11T14:35:15.706Z,101909.28
2023-02-11T14:38:55.588Z,101900.25
2023-02-11T14:42:03.988Z,101906.66
2023-02-11T14:45:11.414Z,101905.16
2023-02-11T14:48:18.314Z,101891.94
2023-02-11T14:51:28.870Z,101906.91
2023-02-11T14:54:34.521Z,101887.00
2023-02-11T14:57:40.081Z,101862.03
2023-02-11T15:01:15.013Z,101854.06
2023-02-11T15:04:32.347Z,101855.00
2023-02-11T15:07:36.616Z,101848.88
2023-02-11T15:10:45.882Z,101850.22
2023-02-11T15:13:50.758Z,101855.94
2023-02-11T15:17:06.844Z,101864.19
2023-02-11T15:20:22.424Z,101870.59
2023-02-11T15:23:31.448Z,101865.34
2023-02-11T15:26:38.754Z,101862.16
2023-02-11T15:29:46.920Z,101849.03
2023-02-11T15:33:03.552Z,101855.56
2023-02-11T15:36:13.293Z,101845.78
2023-02-11T15:39:34.487Z,101839.59
2023-02-11T15:42:52.392Z,101837.16
2023-02-11T15:46:03.331Z,101835.62
2023-02-11T15:49:19.690Z,101840.19
2023-02-11T15:52:27.745Z,101834.88
2023-02-11T15:55:33.863Z,101825.97
2023-02-11T15:58:41.457Z,101824.91
2023-02-11T16:01:47.636Z,101811.91
2023-02-11T16:04:56.279Z,101812.41
2023-02-11T16:08:02.205Z,101806.53
2023-02-11T16:11:11.049Z,101798.56
2023-02-11T16:14:42.739Z,101800.59
2023-02-11T16:17:47.731Z,101800.13
2023-02-11T16:20:54.703Z,101795.50
2023-02-11T16:24:02.327Z,101811.72
2023-02-11T16:27:25.019Z,101806.56
2023-02-11T16:30:37.655Z,101798.59
2023-02-11T16:33:43.272Z,101787.22
2023-02-11T16:36:49.623Z,101808.69
2023-02-11T16:40:00.135Z,101801.22
2023-02-11T16:43:05.586Z,101796.16
2023-02-11T16:46:18.740Z,101813.00
2023-02-11T16:49:30.212Z,101811.41
2023-02-11T16:52:37.433Z,101823.22
2023-02-11T16:55:44.453Z,101821.50
2023-02-11T16:58:51.498Z,101818.75
2023-02-11T17:01:58.260Z,101819.28
2023-02-11T17:05:07.134Z,101819.03
2023-02-11T17:08:12.739Z,101819.84
2023-02-11T17:11:18.149Z,101826.47
2023-02-11T17:14:24.218Z,101826.47
2023-02-11T17:17:31.563Z,101815.56
2023-02-11T17:20:36.978Z,101799.47
2023-02-11T17:23:41.888Z,101801.03
2023-02-11T17:26:46.779Z,101810.88
2023-02-11T17:29:53.894Z,101816.13
2023-02-11T17:32:59.592Z,101821.56
2023-02-11T17:36:09.670Z,101824.25
2023-02-11T17:39:15.421Z,101822.31
2023-02-11T17:42:20.430Z,101818.94
2023-02-11T17:45:25.116Z,101815.38
2023-02-11T17:48:29.045Z,101826.97
2023-02-11T17:51:39.779Z,101816.19
2023-02-11T17:54:44.719Z,101813.25
2023-02-11T17:57:49.624Z,101806.66
2023-02-11T18:00:59.714Z,101810.16
2023-02-11T18:04:05.671Z,101804.84
2023-02-11T18:07:12.997Z,101785.94
2023-02-11T18:10:20.155Z,101778.75
2023-02-11T18:13:25.685Z,101770.91
2023-02-11T18:16:31.128Z,101771.72
2023-02-11T18:19:36.810Z,101755.94
2023-02-11T18:22:45.150Z,101779.94
2023-02-11T18:25:50.299Z,101777.44
2023-02-11T18:28:58.427Z,101780.25
2023-02-11T18:32:04.572Z,101795.50
2023-02-11T18:35:16.161Z,101782.22
2023-02-11T18:38:23.739Z,101777.91
2023-02-11T18:41:31.394Z,101778.09
2023-02-11T18:44:38.246Z,101765.72
2023-02-11T18:47:44.605Z,101779.91
2023-02-11T18:50:52.239Z,101792.56
2023-02-11T18:53:58.013Z,101785.47
2023-02-11T18:57:02.850Z,101752.84
2023-02-11T19:00:12.669Z,101763.44
2023-02-11T19:03:18.380Z,101792.91
2023-02-11T19:06:27.957Z,101801.97
2023-02-11T19:09:33.590Z,101797.56
2023-02-11T19:12:39.453Z,101801.28
2023-02-11T19:15:46.560Z,101789.78
2023-02-11T19:18:51.835Z,101797.81
2023-02-11T19:21:58.660Z,101800.56
2023-02-11T19:25:03.962Z,101808.62
2023-02-11T19:28:09.644Z,101801.44
2023-02-11T19:31:15.220Z,101804.66
2023-02-11T19:34:21.737Z,101795.81
2023-02-11T19:37:27.393Z,101781.59
2023-02-11T19:40:33.446Z,101800.25
2023-02-11T19:43:44.226Z,101809.09
2023-02-11T19:46:52.973Z,101790.34
2023-02-11T19:49:58.673Z,101804.56
2023-02-11T19:53:03.655Z,101798.44
2023-02-11T19:56:11.935Z,101801.00
2023-02-11T19:59:17.851Z,101805.47
2023-02-11T20:02:23.025Z,101798.16
2023-02-11T20:05:37.810Z,101782.13
2023-02-11T20:08:45.131Z,101782.03
2023-02-11T20:11:52.507Z,101780.84
2023-02-11T20:15:00.206Z,101783.28
2023-02-11T20:18:05.467Z,101780.66
2023-02-11T20:21:14.081Z,101779.53
2023-02-11T20:24:21.794Z,101769.94
2023-02-11T20:27:29.173Z,101779.37
2023-02-11T20:30:34.002Z,101777.91
2023-02-11T20:33:41.966Z,101774.50
2023-02-11T20:36:54.914Z,101771.72
2023-02-11T20:40:01.704Z,101778.12
2023-02-11T20:43:07.479Z,101779.22
2023-02-11T20:46:15.229Z,101772.87
2023-02-11T20:49:25.453Z,101761.47
2023-02-11T20:52:30.305Z,101761.28
2023-02-11T20:55:38.947Z,101762.84
2023-02-11T20:58:44.216Z,101755.66
2023-02-11T21:01:53.934Z,101765.31
2023-02-11T21:04:58.935Z,101767.03
2023-02-11T21:08:05.514Z,101775.69
2023-02-11T21:11:11.049Z,101762.37
2023-02-11T21:14:17.088Z,101769.34
2023-02-11T21:17:22.567Z,101764.94
2023-02-11T21:20:29.094Z,101752.50
2023-02-11T21:23:36.524Z,101754.53
2023-02-11T21:26:42.746Z,101761.81
2023-02-11T21:29:54.065Z,101757.34
2023-02-11T21:33:00.270Z,101775.03
2023-02-11T21:36:08.345Z,101764.38
2023-02-11T21:39:14.467Z,101752.13
2023-02-11T21:42:20.707Z,101761.28
2023-02-11T21:45:28.289Z,101766.13
2023-02-11T21:48:31.947Z,101755.63
2023-02-11T21:51:38.125Z,101768.91
2023-02-11T21:54:42.795Z,101780.41
2023-02-11T21:57:49.811Z,101773.53
2023-02-11T22:00:54.439Z,101759.03
2023-02-11T22:03:59.306Z,101755.75
2023-02-11T22:07:03.482Z,101757.66
2023-02-11T22:10:08.471Z,101761.28
2023-02-11T22:13:12.410Z,101761.97
2023-02-11T22:16:21.795Z,101770.19
2023-02-11T22:19:25.590Z,101777.00
2023-02-11T22:22:29.500Z,101763.78
2023-02-11T22:25:32.653Z,101761.88
2023-02-11T22:28:39.332Z,101760.81
2023-02-11T22:31:43.029Z,101764.19
2023-02-11T22:34:46.644Z,101756.53
2023-02-11T22:37:49.777Z,101763.94
2023-02-11T22:40:53.413Z,101776.34
2023-02-11T22:43:56.914Z,101784.16
2023-02-11T22:47:00.473Z,101780.41
2023-02-11T22:50:04.037Z,101788.06
2023-02-11T22:53:08.810Z,101788.97
2023-02-11T22:56:15.796Z,101795.41
2023-02-11T22:59:21.476Z,101791.25
2023-02-11T23:02:26.026Z,101759.19
2023-02-11T23:05:29.592Z,101770.81
2023-02-11T23:08:33.747Z,101771.81
2023-02-11T23:11:39.904Z,101783.41
2023-02-11T23:14:44.327Z,101781.97
2023-02-11T23:17:47.764Z,101778.53
2023-02-11T23:20:50.994Z,101769.59
2023-02-11T23:23:59.657Z,101772.06
2023-02-11T23:27:03.526Z,101770.19
2023-02-11T23:30:08.393Z,101773.91
2023-02-11T23:33:11.635Z,101783.13
2023-02-11T23:36:16.037Z,101782.03
2023-02-11T23:39:19.757Z,101772.19
2023-02-11T23:42:23.581Z,101772.25
2023-02-11T23:45:27.347Z,101768.97
2023-02-11T23:48:31.254Z,101775.47
2023-02-11T23:51:34.454Z,101753.28
2023-02-11T23:54:37.910Z,101769.50
2023-02-11T23:57:41.137Z,101754.41
